sensor_id;sensor_type;location;lat;lon;timestamp;temperature;humidity
40023;DHT22;25713;-35.352;149.036;2023-06-14T00:00:24;10.50;89.80
40023;DHT22;25713;-35.352;149.036;2023-06-14T00:02:54;10.60;89.40
40023;DHT22;25713;-35.352;149.036;2023-06-14T00:05:23;10.50;89.50
40023;DHT22;25713;-35.352;149.036;2023-06-14T00:07:53;10.60;89.80
40023;DHT22;25713;-35.352;149.036;2023-06-14T00:10:22;10.60;89.40
40023;DHT22;25713;-35.352;149.036;2023-06-14T00:12:54;10.60;89.50
40023;DHT22;25713;-35.352;149.036;2023-06-14T00:15:23;10.60;89.80
40023;DHT22;25713;-35.352;149.036;2023-06-14T00:17:52;10.60;89.70
40023;DHT22;25713;-35.352;149.036;2023-06-14T00:20:22;10.70;89.60
40023;DHT22;25713;-35.352;149.036;2023-06-14T00:22:51;10.80;89.30
40023;DHT22;25713;-35.352;149.036;2023-06-14T00:25:22;10.80;88.70
40023;DHT22;25713;-35.352;149.036;2023-06-14T00:27:53;10.80;89.00
40023;DHT22;25713;-35.352;149.036;2023-06-14T00:30:23;10.80;89.10
40023;DHT22;25713;-35.352;149.036;2023-06-14T00:32:52;10.90;89.00
40023;DHT22;25713;-35.352;149.036;2023-06-14T00:35:22;10.80;88.70
40023;DHT22;25713;-35.352;149.036;2023-06-14T00:37:51;10.80;89.10
40023;DHT22;25713;-35.352;149.036;2023-06-14T00:40:21;10.90;89.70
40023;DHT22;25713;-35.352;149.036;2023-06-14T00:42:54;11.00;89.00
40023;DHT22;25713;-35.352;149.036;2023-06-14T00:45:23;11.00;88.90
40023;DHT22;25713;-35.352;149.036;2023-06-14T00:47:53;10.90;88.30
40023;DHT22;25713;-35.352;149.036;2023-06-14T00:50:24;10.90;88.60
40023;DHT22;25713;-35.352;149.036;2023-06-14T00:52:54;11.00;88.40
40023;DHT22;25713;-35.352;149.036;2023-06-14T00:55:23;11.00;88.50
40023;DHT22;25713;-35.352;149.036;2023-06-14T00:57:55;11.10;88.10
40023;DHT22;25713;-35.352;149.036;2023-06-14T01:00:25;11.10;88.50
40023;DHT22;25713;-35.352;149.036;2023-06-14T01:02:57;11.10;87.40
40023;DHT22;25713;-35.352;149.036;2023-06-14T01:05:27;11.20;86.90
40023;DHT22;25713;-35.352;149.036;2023-06-14T01:08:08;11.10;87.70
40023;DHT22;25713;-35.352;149.036;2023-06-14T01:10:47;11.20;87.60
40023;DHT22;25713;-35.352;149.036;2023-06-14T01:13:23;11.10;87.20
40023;DHT22;25713;-35.352;149.036;2023-06-14T01:15:53;11.10;86.50
40023;DHT22;25713;-35.352;149.036;2023-06-14T01:18:24;11.10;85.40
40023;DHT22;25713;-35.352;149.036;2023-06-14T01:20:53;11.20;86.70
40023;DHT22;25713;-35.352;149.036;2023-06-14T01:23:25;11.10;84.60
40023;DHT22;25713;-35.352;149.036;2023-06-14T01:25:55;11.10;86.40
40023;DHT22;25713;-35.352;149.036;2023-06-14T01:28:25;11.20;86.50
40023;DHT22;25713;-35.352;149.036;2023-06-14T01:30:56;11.20;85.60
40023;DHT22;25713;-35.352;149.036;2023-06-14T01:33:28;11.30;86.60
40023;DHT22;25713;-35.352;149.036;2023-06-14T01:36:01;11.40;86.60
40023;DHT22;25713;-35.352;149.036;2023-06-14T01:38:34;11.40;86.50
40023;DHT22;25713;-35.352;149.036;2023-06-14T01:41:05;11.50;86.70
40023;DHT22;25713;-35.352;149.036;2023-06-14T01:43:36;11.40;85.20
40023;DHT22;25713;-35.352;149.036;2023-06-14T01:46:07;11.40;85.80
40023;DHT22;25713;-35.352;149.036;2023-06-14T01:48:37;11.50;85.90
40023;DHT22;25713;-35.352;149.036;2023-06-14T01:51:07;11.50;85.00
40023;DHT22;25713;-35.352;149.036;2023-06-14T01:53:38;11.50;82.90
40023;DHT22;25713;-35.352;149.036;2023-06-14T01:56:08;11.50;84.20
40023;DHT22;25713;-35.352;149.036;2023-06-14T01:58:37;11.50;84.50
40023;DHT22;25713;-35.352;149.036;2023-06-14T02:01:07;11.50;84.50
40023;DHT22;25713;-35.352;149.036;2023-06-14T02:03:36;11.50;84.10
40023;DHT22;25713;-35.352;149.036;2023-06-14T02:06:05;11.50;85.00
40023;DHT22;25713;-35.352;149.036;2023-06-14T02:08:37;11.60;85.10
40023;DHT22;25713;-35.352;149.036;2023-06-14T02:11:06;11.60;85.20
40023;DHT22;25713;-35.352;149.036;2023-06-14T02:13:37;11.60;84.40
40023;DHT22;25713;-35.352;149.036;2023-06-14T02:16:07;11.60;84.40
40023;DHT22;25713;-35.352;149.036;2023-06-14T02:18:37;11.70;83.90
40023;DHT22;25713;-35.352;149.036;2023-06-14T02:21:07;11.60;82.90
40023;DHT22;25713;-35.352;149.036;2023-06-14T02:23:38;11.60;83.40
40023;DHT22;25713;-35.352;149.036;2023-06-14T02:26:08;11.60;83.80
40023;DHT22;25713;-35.352;149.036;2023-06-14T02:28:37;11.60;83.40
40023;DHT22;25713;-35.352;149.036;2023-06-14T02:31:06;11.60;83.40
40023;DHT22;25713;-35.352;149.036;2023-06-14T02:33:36;11.50;83.70
40023;DHT22;25713;-35.352;149.036;2023-06-14T02:36:06;11.50;83.50
40023;DHT22;25713;-35.352;149.036;2023-06-14T02:38:39;11.50;83.70
40023;DHT22;25713;-35.352;149.036;2023-06-14T02:41:11;11.50;84.30
40023;DHT22;25713;-35.352;149.036;2023-06-14T02:43:41;11.50;83.80
40023;DHT22;25713;-35.352;149.036;2023-06-14T02:46:10;11.40;83.10
40023;DHT22;25713;-35.352;149.036;2023-06-14T02:48:39;11.40;83.10
40023;DHT22;25713;-35.352;149.036;2023-06-14T02:51:12;11.40;83.60
40023;DHT22;25713;-35.352;149.036;2023-06-14T02:53:43;11.30;83.80
40023;DHT22;25713;-35.352;149.036;2023-06-14T02:56:13;11.40;84.50
40023;DHT22;25713;-35.352;149.036;2023-06-14T02:58:43;11.40;84.80
40023;DHT22;25713;-35.352;149.036;2023-06-14T03:01:13;11.40;85.10
40023;DHT22;25713;-35.352;149.036;2023-06-14T03:03:42;11.40;85.00
40023;DHT22;25713;-35.352;149.036;2023-06-14T03:06:12;11.40;84.60
40023;DHT22;25713;-35.352;149.036;2023-06-14T03:08:44;11.40;84.80
40023;DHT22;25713;-35.352;149.036;2023-06-14T03:11:17;11.40;84.10
40023;DHT22;25713;-35.352;149.036;2023-06-14T03:13:47;11.30;84.70
40023;DHT22;25713;-35.352;149.036;2023-06-14T03:16:16;11.40;85.30
40023;DHT22;25713;-35.352;149.036;2023-06-14T03:18:46;11.40;85.30
40023;DHT22;25713;-35.352;149.036;2023-06-14T03:21:15;11.40;84.80
40023;DHT22;25713;-35.352;149.036;2023-06-14T03:23:48;11.30;84.90
40023;DHT22;25713;-35.352;149.036;2023-06-14T03:26:18;11.30;85.90
40023;DHT22;25713;-35.352;149.036;2023-06-14T03:28:49;11.30;85.10
40023;DHT22;25713;-35.352;149.036;2023-06-14T03:31:19;11.30;85.40
40023;DHT22;25713;-35.352;149.036;2023-06-14T03:33:48;11.30;85.80
40023;DHT22;25713;-35.352;149.036;2023-06-14T03:36:18;11.20;84.70
40023;DHT22;25713;-35.352;149.036;2023-06-14T03:38:50;11.20;83.80
40023;DHT22;25713;-35.352;149.036;2023-06-14T03:41:20;11.20;84.20
40023;DHT22;25713;-35.352;149.036;2023-06-14T03:43:51;11.20;84.30
40023;DHT22;25713;-35.352;149.036;2023-06-14T03:46:20;11.20;84.40
40023;DHT22;25713;-35.352;149.036;2023-06-14T03:48:50;11.10;83.80
40023;DHT22;25713;-35.352;149.036;2023-06-14T03:51:20;11.10;84.00
40023;DHT22;25713;-35.352;149.036;2023-06-14T03:53:52;11.10;84.20
40023;DHT22;25713;-35.352;149.036;2023-06-14T03:56:21;11.10;85.40
40023;DHT22;25713;-35.352;149.036;2023-06-14T03:58:51;11.10;84.50
40023;DHT22;25713;-35.352;149.036;2023-06-14T04:01:23;11.00;83.60
40023;DHT22;25713;-35.352;149.036;2023-06-14T04:03:53;11.00;84.40
40023;DHT22;25713;-35.352;149.036;2023-06-14T04:06:23;11.10;85.90
40023;DHT22;25713;-35.352;149.036;2023-06-14T04:08:54;11.00;85.30
40023;DHT22;25713;-35.352;149.036;2023-06-14T04:11:23;11.00;85.30
40023;DHT22;25713;-35.352;149.036;2023-06-14T04:13:53;11.00;85.40
40023;DHT22;25713;-35.352;149.036;2023-06-14T04:16:23;11.10;85.50
40023;DHT22;25713;-35.352;149.036;2023-06-14T04:18:53;11.10;86.00
40023;DHT22;25713;-35.352;149.036;2023-06-14T04:21:22;11.10;86.30
40023;DHT22;25713;-35.352;149.036;2023-06-14T04:23:55;11.10;86.40
40023;DHT22;25713;-35.352;149.036;2023-06-14T04:26:27;11.10;86.10
40023;DHT22;25713;-35.352;149.036;2023-06-14T04:28:58;11.10;86.40
40023;DHT22;25713;-35.352;149.036;2023-06-14T04:31:27;11.10;86.40
40023;DHT22;25713;-35.352;149.036;2023-06-14T04:33:57;11.10;86.40
40023;DHT22;25713;-35.352;149.036;2023-06-14T04:36:27;11.10;86.80
40023;DHT22;25713;-35.352;149.036;2023-06-14T04:38:58;11.10;86.40
40023;DHT22;25713;-35.352;149.036;2023-06-14T04:41:29;11.10;89.20
40023;DHT22;25713;-35.352;149.036;2023-06-14T04:43:59;11.10;86.40
40023;DHT22;25713;-35.352;149.036;2023-06-14T04:46:29;11.00;86.60
40023;DHT22;25713;-35.352;149.036;2023-06-14T04:48:59;11.00;86.80
40023;DHT22;25713;-35.352;149.036;2023-06-14T04:51:28;11.00;87.70
40023;DHT22;25713;-35.352;149.036;2023-06-14T04:54:00;11.00;87.40
40023;DHT22;25713;-35.352;149.036;2023-06-14T04:56:30;11.00;86.90
40023;DHT22;25713;-35.352;149.036;2023-06-14T04:58:59;10.90;86.20
40023;DHT22;25713;-35.352;149.036;2023-06-14T05:01:28;11.00;87.70
40023;DHT22;25713;-35.352;149.036;2023-06-14T05:03:58;11.00;87.40
40023;DHT22;25713;-35.352;149.036;2023-06-14T05:06:28;10.90;85.60
40023;DHT22;25713;-35.352;149.036;2023-06-14T05:09:00;10.90;88.00
40023;DHT22;25713;-35.352;149.036;2023-06-14T05:11:29;11.00;86.80
40023;DHT22;25713;-35.352;149.036;2023-06-14T05:13:59;10.90;85.70
40023;DHT22;25713;-35.352;149.036;2023-06-14T05:16:28;10.80;85.50
40023;DHT22;25713;-35.352;149.036;2023-06-14T05:18:58;10.80;84.50
40023;DHT22;25713;-35.352;149.036;2023-06-14T05:21:27;10.90;86.70
40023;DHT22;25713;-35.352;149.036;2023-06-14T05:23:58;10.90;87.40
40023;DHT22;25713;-35.352;149.036;2023-06-14T05:26:28;10.90;85.00
40023;DHT22;25713;-35.352;149.036;2023-06-14T05:28:57;10.90;86.00
40023;DHT22;25713;-35.352;149.036;2023-06-14T05:31:27;10.90;86.40
40023;DHT22;25713;-35.352;149.036;2023-06-14T05:33:56;10.90;86.80
40023;DHT22;25713;-35.352;149.036;2023-06-14T05:36:26;10.90;87.70
40023;DHT22;25713;-35.352;149.036;2023-06-14T05:38:56;10.90;86.30
40023;DHT22;25713;-35.352;149.036;2023-06-14T05:41:28;10.80;86.80
40023;DHT22;25713;-35.352;149.036;2023-06-14T05:43:57;10.80;87.70
40023;DHT22;25713;-35.352;149.036;2023-06-14T05:46:27;10.90;87.80
40023;DHT22;25713;-35.352;149.036;2023-06-14T05:48:57;10.90;88.90
40023;DHT22;25713;-35.352;149.036;2023-06-14T05:51:26;11.00;88.90
40023;DHT22;25713;-35.352;149.036;2023-06-14T05:53:55;11.00;87.60
40023;DHT22;25713;-35.352;149.036;2023-06-14T05:56:27;11.00;88.00
40023;DHT22;25713;-35.352;149.036;2023-06-14T05:58:57;11.00;87.50
40023;DHT22;25713;-35.352;149.036;2023-06-14T06:01:26;11.00;87.70
40023;DHT22;25713;-35.352;149.036;2023-06-14T06:03:55;11.00;87.60
40023;DHT22;25713;-35.352;149.036;2023-06-14T06:06:25;11.00;85.70
40023;DHT22;25713;-35.352;149.036;2023-06-14T06:08:55;11.00;86.10
40023;DHT22;25713;-35.352;149.036;2023-06-14T06:11:26;11.00;85.90
40023;DHT22;25713;-35.352;149.036;2023-06-14T06:13:55;11.10;87.40
40023;DHT22;25713;-35.352;149.036;2023-06-14T06:16:25;11.10;86.80
40023;DHT22;25713;-35.352;149.036;2023-06-14T06:18:54;11.20;86.10
40023;DHT22;25713;-35.352;149.036;2023-06-14T06:21:23;11.20;86.70
40023;DHT22;25713;-35.352;149.036;2023-06-14T06:23:53;11.30;85.20
40023;DHT22;25713;-35.352;149.036;2023-06-14T06:26:23;11.30;86.60
40023;DHT22;25713;-35.352;149.036;2023-06-14T06:28:55;11.20;85.80
40023;DHT22;25713;-35.352;149.036;2023-06-14T06:31:24;11.30;85.00
40023;DHT22;25713;-35.352;149.036;2023-06-14T06:33:54;11.30;87.70
40023;DHT22;25713;-35.352;149.036;2023-06-14T06:36:23;11.30;85.60
40023;DHT22;25713;-35.352;149.036;2023-06-14T06:38:53;11.40;86.10
40023;DHT22;25713;-35.352;149.036;2023-06-14T06:41:23;11.40;86.40
40023;DHT22;25713;-35.352;149.036;2023-06-14T06:43:54;11.50;85.60
40023;DHT22;25713;-35.352;149.036;2023-06-14T06:46:30;11.50;86.50
40023;DHT22;25713;-35.352;149.036;2023-06-14T06:49:00;11.50;86.10
40023;DHT22;25713;-35.352;149.036;2023-06-14T06:51:29;11.60;85.20
40023;DHT22;25713;-35.352;149.036;2023-06-14T06:53:59;11.60;85.40
40023;DHT22;25713;-35.352;149.036;2023-06-14T06:56:29;11.60;85.50
40023;DHT22;25713;-35.352;149.036;2023-06-14T06:59:00;11.60;85.10
40023;DHT22;25713;-35.352;149.036;2023-06-14T07:01:29;11.60;86.40
40023;DHT22;25713;-35.352;149.036;2023-06-14T07:03:59;11.70;86.10
40023;DHT22;25713;-35.352;149.036;2023-06-14T07:06:28;11.70;86.10
40023;DHT22;25713;-35.352;149.036;2023-06-14T07:08:58;11.70;86.20
40023;DHT22;25713;-35.352;149.036;2023-06-14T07:11:27;11.70;85.90
40023;DHT22;25713;-35.352;149.036;2023-06-14T07:13:58;11.70;85.70
40023;DHT22;25713;-35.352;149.036;2023-06-14T07:16:28;11.60;85.60
40023;DHT22;25713;-35.352;149.036;2023-06-14T07:18:57;11.70;85.60
40023;DHT22;25713;-35.352;149.036;2023-06-14T07:21:30;11.70;85.80
40023;DHT22;25713;-35.352;149.036;2023-06-14T07:23:58;11.70;85.70
40023;DHT22;25713;-35.352;149.036;2023-06-14T07:26:27;11.70;85.40
40023;DHT22;25713;-35.352;149.036;2023-06-14T07:28:59;11.70;86.30
40023;DHT22;25713;-35.352;149.036;2023-06-14T07:31:28;11.70;86.70
40023;DHT22;25713;-35.352;149.036;2023-06-14T07:33:57;11.60;86.80
40023;DHT22;25713;-35.352;149.036;2023-06-14T07:36:27;11.60;86.70
40023;DHT22;25713;-35.352;149.036;2023-06-14T07:38:56;11.70;86.80
40023;DHT22;25713;-35.352;149.036;2023-06-14T07:41:26;11.70;87.70
40023;DHT22;25713;-35.352;149.036;2023-06-14T07:43:55;11.60;86.90
40023;DHT22;25713;-35.352;149.036;2023-06-14T07:46:27;11.70;87.10
40023;DHT22;25713;-35.352;149.036;2023-06-14T07:48:56;11.60;87.60
40023;DHT22;25713;-35.352;149.036;2023-06-14T07:51:26;11.70;87.90
40023;DHT22;25713;-35.352;149.036;2023-06-14T07:53:55;11.60;87.70
40023;DHT22;25713;-35.352;149.036;2023-06-14T07:56:25;11.70;87.50
40023;DHT22;25713;-35.352;149.036;2023-06-14T07:58:54;11.60;88.30
40023;DHT22;25713;-35.352;149.036;2023-06-14T08:01:25;11.60;88.40
40023;DHT22;25713;-35.352;149.036;2023-06-14T08:03:55;11.60;89.80
40023;DHT22;25713;-35.352;149.036;2023-06-14T08:06:24;11.70;89.90
40023;DHT22;25713;-35.352;149.036;2023-06-14T08:08:54;11.60;90.00
40023;DHT22;25713;-35.352;149.036;2023-06-14T08:11:23;11.70;89.90
40023;DHT22;25713;-35.352;149.036;2023-06-14T08:13:53;11.60;88.70
40023;DHT22;25713;-35.352;149.036;2023-06-14T08:16:22;11.60;90.00
40023;DHT22;25713;-35.352;149.036;2023-06-14T08:18:55;11.60;90.10
40023;DHT22;25713;-35.352;149.036;2023-06-14T08:21:24;11.60;90.50
40023;DHT22;25713;-35.352;149.036;2023-06-14T08:23:54;11.60;90.60
40023;DHT22;25713;-35.352;149.036;2023-06-14T08:26:23;11.60;90.10
40023;DHT22;25713;-35.352;149.036;2023-06-14T08:28:53;11.60;90.10
40023;DHT22;25713;-35.352;149.036;2023-06-14T08:31:23;11.70;89.60
40023;DHT22;25713;-35.352;149.036;2023-06-14T08:33:54;11.60;90.40
40023;DHT22;25713;-35.352;149.036;2023-06-14T08:36:24;11.60;89.10
40023;DHT22;25713;-35.352;149.036;2023-06-14T08:38:53;11.60;90.30
40023;DHT22;25713;-35.352;149.036;2023-06-14T08:41:23;11.60;90.70
40023;DHT22;25713;-35.352;149.036;2023-06-14T08:43:53;11.60;90.60
40023;DHT22;25713;-35.352;149.036;2023-06-14T08:46:22;11.60;90.10
40023;DHT22;25713;-35.352;149.036;2023-06-14T08:48:57;11.60;90.20
40023;DHT22;25713;-35.352;149.036;2023-06-14T08:51:27;11.60;90.80
40023;DHT22;25713;-35.352;149.036;2023-06-14T08:53:57;11.60;90.40
40023;DHT22;25713;-35.352;149.036;2023-06-14T08:56:27;11.60;89.80
40023;DHT22;25713;-35.352;149.036;2023-06-14T08:58:57;11.60;90.20
40023;DHT22;25713;-35.352;149.036;2023-06-14T09:01:27;11.60;90.00
40023;DHT22;25713;-35.352;149.036;2023-06-14T09:03:59;11.60;89.50
40023;DHT22;25713;-35.352;149.036;2023-06-14T09:06:28;11.50;90.20
40023;DHT22;25713;-35.352;149.036;2023-06-14T09:08:58;11.60;90.00
40023;DHT22;25713;-35.352;149.036;2023-06-14T09:11:27;11.60;90.60
40023;DHT22;25713;-35.352;149.036;2023-06-14T09:13:57;11.60;91.20
40023;DHT22;25713;-35.352;149.036;2023-06-14T09:16:27;11.50;90.80
40023;DHT22;25713;-35.352;149.036;2023-06-14T09:18:58;11.60;90.60
40023;DHT22;25713;-35.352;149.036;2023-06-14T09:21:28;11.60;90.40
40023;DHT22;25713;-35.352;149.036;2023-06-14T09:24:03;11.50;90.40
40023;DHT22;25713;-35.352;149.036;2023-06-14T09:26:32;11.50;90.20
40023;DHT22;25713;-35.352;149.036;2023-06-14T09:29:06;11.50;90.30
40023;DHT22;25713;-35.352;149.036;2023-06-14T09:31:35;11.50;89.00
40023;DHT22;25713;-35.352;149.036;2023-06-14T09:34:06;11.40;87.60
40023;DHT22;25713;-35.352;149.036;2023-06-14T09:36:36;11.30;86.90
40023;DHT22;25713;-35.352;149.036;2023-06-14T09:39:05;11.30;89.50
40023;DHT22;25713;-35.352;149.036;2023-06-14T09:41:35;11.10;89.40
40023;DHT22;25713;-35.352;149.036;2023-06-14T09:44:05;11.00;87.90
40023;DHT22;25713;-35.352;149.036;2023-06-14T09:46:35;11.00;87.60
40023;DHT22;25713;-35.352;149.036;2023-06-14T09:49:08;11.10;89.60
40023;DHT22;25713;-35.352;149.036;2023-06-14T09:51:43;11.00;90.10
40023;DHT22;25713;-35.352;149.036;2023-06-14T09:54:16;11.00;87.90
40023;DHT22;25713;-35.352;149.036;2023-06-14T09:56:46;10.90;90.60
40023;DHT22;25713;-35.352;149.036;2023-06-14T09:59:19;10.90;90.40
40023;DHT22;25713;-35.352;149.036;2023-06-14T10:01:49;10.90;89.40
40023;DHT22;25713;-35.352;149.036;2023-06-14T10:04:22;10.90;90.40
40023;DHT22;25713;-35.352;149.036;2023-06-14T10:06:52;10.90;90.20
40023;DHT22;25713;-35.352;149.036;2023-06-14T10:09:24;10.90;89.20
40023;DHT22;25713;-35.352;149.036;2023-06-14T10:11:54;10.90;90.10
40023;DHT22;25713;-35.352;149.036;2023-06-14T10:14:24;10.90;90.50
40023;DHT22;25713;-35.352;149.036;2023-06-14T10:16:59;10.80;90.20
40023;DHT22;25713;-35.352;149.036;2023-06-14T10:19:37;10.90;89.50
40023;DHT22;25713;-35.352;149.036;2023-06-14T10:22:11;10.90;90.00
40023;DHT22;25713;-35.352;149.036;2023-06-14T10:24:43;10.90;90.60
40023;DHT22;25713;-35.352;149.036;2023-06-14T10:27:15;10.90;90.10
40023;DHT22;25713;-35.352;149.036;2023-06-14T10:30:06;10.90;90.30
40023;DHT22;25713;-35.352;149.036;2023-06-14T10:32:36;10.90;90.10
40023;DHT22;25713;-35.352;149.036;2023-06-14T10:35:28;10.90;90.30
40023;DHT22;25713;-35.352;149.036;2023-06-14T10:38:08;10.80;90.20
40023;DHT22;25713;-35.352;149.036;2023-06-14T10:40:37;10.90;90.50
40023;DHT22;25713;-35.352;149.036;2023-06-14T10:43:24;10.80;88.60
40023;DHT22;25713;-35.352;149.036;2023-06-14T10:46:15;10.80;90.40
40023;DHT22;25713;-35.352;149.036;2023-06-14T10:48:45;10.80;90.80
40023;DHT22;25713;-35.352;149.036;2023-06-14T10:51:21;10.80;90.30
40023;DHT22;25713;-35.352;149.036;2023-06-14T10:53:51;10.70;87.30
40023;DHT22;25713;-35.352;149.036;2023-06-14T10:56:29;10.80;88.30
40023;DHT22;25713;-35.352;149.036;2023-06-14T10:58:59;10.90;88.10
40023;DHT22;25713;-35.352;149.036;2023-06-14T11:01:36;10.80;87.50
40023;DHT22;25713;-35.352;149.036;2023-06-14T11:04:10;10.90;90.20
40023;DHT22;25713;-35.352;149.036;2023-06-14T11:06:50;10.80;88.70
40023;DHT22;25713;-35.352;149.036;2023-06-14T11:09:41;10.80;87.80
40023;DHT22;25713;-35.352;149.036;2023-06-14T11:12:16;10.80;87.00
40023;DHT22;25713;-35.352;149.036;2023-06-14T11:14:48;10.80;89.40
40023;DHT22;25713;-35.352;149.036;2023-06-14T11:17:17;10.80;86.90
40023;DHT22;25713;-35.352;149.036;2023-06-14T11:19:47;10.80;88.50
40023;DHT22;25713;-35.352;149.036;2023-06-14T11:22:19;10.80;87.90
40023;DHT22;25713;-35.352;149.036;2023-06-14T11:24:47;10.80;87.90
40023;DHT22;25713;-35.352;149.036;2023-06-14T11:27:16;10.80;87.80
40023;DHT22;25713;-35.352;149.036;2023-06-14T11:29:49;10.80;88.10
40023;DHT22;25713;-35.352;149.036;2023-06-14T11:32:19;10.80;87.60
40023;DHT22;25713;-35.352;149.036;2023-06-14T11:34:49;10.70;86.20
40023;DHT22;25713;-35.352;149.036;2023-06-14T11:37:21;10.70;86.80
40023;DHT22;25713;-35.352;149.036;2023-06-14T11:39:51;10.70;88.90
40023;DHT22;25713;-35.352;149.036;2023-06-14T11:42:20;10.80;89.00
40023;DHT22;25713;-35.352;149.036;2023-06-14T11:44:50;10.80;87.70
40023;DHT22;25713;-35.352;149.036;2023-06-14T11:47:20;10.80;88.00
40023;DHT22;25713;-35.352;149.036;2023-06-14T11:49:49;10.80;87.50
40023;DHT22;25713;-35.352;149.036;2023-06-14T11:52:22;10.90;87.10
40023;DHT22;25713;-35.352;149.036;2023-06-14T11:54:52;10.90;87.80
40023;DHT22;25713;-35.352;149.036;2023-06-14T11:57:21;10.90;86.70
40023;DHT22;25713;-35.352;149.036;2023-06-14T11:59:51;10.90;84.60
40023;DHT22;25713;-35.352;149.036;2023-06-14T12:02:21;10.90;84.90
40023;DHT22;25713;-35.352;149.036;2023-06-14T12:04:50;10.90;84.10
40023;DHT22;25713;-35.352;149.036;2023-06-14T12:07:23;10.90;86.10
40023;DHT22;25713;-35.352;149.036;2023-06-14T12:10:07;10.70;84.10
40023;DHT22;25713;-35.352;149.036;2023-06-14T12:12:38;10.80;89.10
40023;DHT22;25713;-35.352;149.036;2023-06-14T12:15:09;10.80;88.50
40023;DHT22;25713;-35.352;149.036;2023-06-14T12:17:41;10.80;87.80
40023;DHT22;25713;-35.352;149.036;2023-06-14T12:20:12;10.90;87.20
40023;DHT22;25713;-35.352;149.036;2023-06-14T12:22:51;10.90;86.90
40023;DHT22;25713;-35.352;149.036;2023-06-14T12:25:32;10.90;87.90
40023;DHT22;25713;-35.352;149.036;2023-06-14T12:28:06;10.90;87.80
40023;DHT22;25713;-35.352;149.036;2023-06-14T12:30:35;10.90;87.50
40023;DHT22;25713;-35.352;149.036;2023-06-14T12:33:05;10.90;87.80
40023;DHT22;25713;-35.352;149.036;2023-06-14T12:35:35;10.90;87.90
40023;DHT22;25713;-35.352;149.036;2023-06-14T12:38:07;11.00;88.20
40023;DHT22;25713;-35.352;149.036;2023-06-14T12:40:37;11.00;88.80
40023;DHT22;25713;-35.352;149.036;2023-06-14T12:43:06;11.00;88.50
40023;DHT22;25713;-35.352;149.036;2023-06-14T12:45:36;10.90;88.00
40023;DHT22;25713;-35.352;149.036;2023-06-14T12:48:05;10.90;88.70
40023;DHT22;25713;-35.352;149.036;2023-06-14T12:50:35;10.90;89.00
40023;DHT22;25713;-35.352;149.036;2023-06-14T12:53:07;10.90;90.00
40023;DHT22;25713;-35.352;149.036;2023-06-14T12:55:37;10.90;90.00
40023;DHT22;25713;-35.352;149.036;2023-06-14T12:58:07;10.90;90.10
40023;DHT22;25713;-35.352;149.036;2023-06-14T13:00:36;10.90;89.60
40023;DHT22;25713;-35.352;149.036;2023-06-14T13:03:06;10.90;88.90
40023;DHT22;25713;-35.352;149.036;2023-06-14T13:05:36;10.90;88.80
40023;DHT22;25713;-35.352;149.036;2023-06-14T13:08:07;10.90;89.70
40023;DHT22;25713;-35.352;149.036;2023-06-14T13:10:37;10.90;89.80
40023;DHT22;25713;-35.352;149.036;2023-06-14T13:13:06;10.90;90.20
40023;DHT22;25713;-35.352;149.036;2023-06-14T13:15:36;10.90;88.80
40023;DHT22;25713;-35.352;149.036;2023-06-14T13:18:05;10.90;89.80
40023;DHT22;25713;-35.352;149.036;2023-06-14T13:20:35;10.80;88.60
40023;DHT22;25713;-35.352;149.036;2023-06-14T13:23:07;10.80;89.60
40023;DHT22;25713;-35.352;149.036;2023-06-14T13:25:37;10.80;88.50
40023;DHT22;25713;-35.352;149.036;2023-06-14T13:28:06;10.80;88.20
40023;DHT22;25713;-35.352;149.036;2023-06-14T13:30:36;10.80;89.00
40023;DHT22;25713;-35.352;149.036;2023-06-14T13:33:06;10.80;89.60
40023;DHT22;25713;-35.352;149.036;2023-06-14T13:35:35;10.80;89.80
40023;DHT22;25713;-35.352;149.036;2023-06-14T13:38:07;10.80;88.80
40023;DHT22;25713;-35.352;149.036;2023-06-14T13:40:37;10.80;89.10
40023;DHT22;25713;-35.352;149.036;2023-06-14T13:43:07;10.90;88.60
40023;DHT22;25713;-35.352;149.036;2023-06-14T13:45:36;10.90;90.30
40023;DHT22;25713;-35.352;149.036;2023-06-14T13:48:06;10.80;89.60
40023;DHT22;25713;-35.352;149.036;2023-06-14T13:50:35;10.80;88.00
40023;DHT22;25713;-35.352;149.036;2023-06-14T13:53:07;10.80;87.40
40023;DHT22;25713;-35.352;149.036;2023-06-14T13:55:36;10.70;86.90
40023;DHT22;25713;-35.352;149.036;2023-06-14T13:58:06;10.70;89.50
40023;DHT22;25713;-35.352;149.036;2023-06-14T14:00:35;10.60;86.30
40023;DHT22;25713;-35.352;149.036;2023-06-14T14:03:05;10.60;89.40
40023;DHT22;25713;-35.352;149.036;2023-06-14T14:05:34;10.60;88.80
40023;DHT22;25713;-35.352;149.036;2023-06-14T14:08:06;10.60;90.00
40023;DHT22;25713;-35.352;149.036;2023-06-14T14:10:36;10.60;89.30
40023;DHT22;25713;-35.352;149.036;2023-06-14T14:13:05;10.60;87.80
40023;DHT22;25713;-35.352;149.036;2023-06-14T14:15:34;10.50;85.30
40023;DHT22;25713;-35.352;149.036;2023-06-14T14:18:04;10.50;86.40
40023;DHT22;25713;-35.352;149.036;2023-06-14T14:20:34;10.60;90.10
40023;DHT22;25713;-35.352;149.036;2023-06-14T14:23:03;10.60;89.30
40023;DHT22;25713;-35.352;149.036;2023-06-14T14:25:34;10.60;89.80
40023;DHT22;25713;-35.352;149.036;2023-06-14T14:28:04;10.60;89.90
40023;DHT22;25713;-35.352;149.036;2023-06-14T14:30:34;10.60;89.00
40023;DHT22;25713;-35.352;149.036;2023-06-14T14:33:03;10.60;87.00
40023;DHT22;25713;-35.352;149.036;2023-06-14T14:35:33;10.60;88.50
40023;DHT22;25713;-35.352;149.036;2023-06-14T14:38:02;10.50;87.00
40023;DHT22;25713;-35.352;149.036;2023-06-14T14:40:33;10.40;88.00
40023;DHT22;25713;-35.352;149.036;2023-06-14T14:43:03;10.40;86.60
40023;DHT22;25713;-35.352;149.036;2023-06-14T14:45:32;10.40;89.00
40023;DHT22;25713;-35.352;149.036;2023-06-14T15:50:38;10.50;87.70
40023;DHT22;25713;-35.352;149.036;2023-06-14T15:53:08;10.50;90.00
40023;DHT22;25713;-35.352;149.036;2023-06-14T15:55:38;10.50;89.70
40023;DHT22;25713;-35.352;149.036;2023-06-14T15:58:07;10.50;89.80
40023;DHT22;25713;-35.352;149.036;2023-06-14T16:00:36;10.50;90.00
40023;DHT22;25713;-35.352;149.036;2023-06-14T16:03:06;10.60;90.10
40023;DHT22;25713;-35.352;149.036;2023-06-14T16:05:37;10.60;90.50
40023;DHT22;25713;-35.352;149.036;2023-06-14T16:08:07;10.60;90.60
40023;DHT22;25713;-35.352;149.036;2023-06-14T16:10:36;10.60;90.60